Time;durP1;ratioP1;P1;durP2;ratioP2;P2;SDS_P1;SDS_P2;PMS_P1;PMS_P2;Temp;Humidity;BMP_temperature;BMP_pressure;BME280_temperature;BME280_humidity;BME280_pressure;Samples;Min_cycle;Max_cycle;Signal;HPM_P1;HPM_P2
2023/01/04 00:00:19;;;;;;;87.95;27.42;;;;;;;0.73;100.00;97138.28;1021023;28;20079;-71
2023/01/04 00:00:50;;;;;;;101.82;28.45;;;;;;;0.73;100.00;97140.06;1030097;28;20030;-70
2023/01/04 00:01:21;;;;;;;93.00;25.75;;;;;;;0.69;100.00;97140.38;1036613;28;20037;-73
2023/01/04 00:01:51;;;;;;;88.25;28.50;;;;;;;0.67;100.00;97142.34;1034928;28;20022;-71
2023/01/04 00:02:22;;;;;;;85.97;25.40;;;;;;;0.72;100.00;97148.78;1026342;28;20320;-71
2023/01/04 00:02:52;;;;;;;93.47;26.58;;;;;;;0.67;100.00;97144.94;1030501;28;20528;-73
2023/01/04 00:03:22;;;;;;;120.65;29.05;;;;;;;0.64;100.00;97147.84;1030358;28;20237;-71
2023/01/04 00:03:53;;;;;;;98.32;27.70;;;;;;;0.69;100.00;97149.91;1030491;28;20311;-70
2023/01/04 00:04:24;;;;;;;106.93;27.63;;;;;;;0.61;100.00;97142.19;1034161;28;20708;-72
2023/01/04 00:04:55;;;;;;;106.54;27.24;;;;;;;0.60;100.00;97141.38;1027666;28;20777;-71
2023/01/04 00:05:25;;;;;;;89.55;27.90;;;;;;;0.67;100.00;97151.84;1030450;28;20026;-70
2023/01/04 00:05:57;;;;;;;83.78;26.02;;;;;;;0.64;100.00;97147.03;1030034;28;20030;-70
2023/01/04 00:06:27;;;;;;;90.72;25.70;;;;;;;0.62;100.00;97148.97;1018755;28;20087;-72
2023/01/04 00:06:58;;;;;;;91.78;28.17;;;;;;;0.55;100.00;97143.66;1030805;28;20773;-70
2023/01/04 00:07:29;;;;;;;99.72;30.73;;;;;;;0.63;100.00;97148.78;1020838;28;20047;-72
2023/01/04 00:08:00;;;;;;;114.05;29.65;;;;;;;0.61;100.00;97148.16;1026098;28;20718;-72
2023/01/04 00:08:30;;;;;;;93.15;27.75;;;;;;;0.63;100.00;97141.03;1022531;28;20278;-73
2023/01/04 00:09:01;;;;;;;104.65;28.00;;;;;;;0.66;100.00;97138.13;1018637;28;20023;-71
2023/01/04 00:09:32;;;;;;;104.03;29.38;;;;;;;0.66;100.00;97145.88;1026870;28;20047;-69
2023/01/04 00:10:03;;;;;;;99.07;28.67;;;;;;;0.62;100.00;97136.84;1028256;28;20019;-71
2023/01/04 00:10:34;;;;;;;114.65;29.00;;;;;;;0.67;100.00;97137.19;1024309;28;20033;-71
2023/01/04 00:11:12;;;;;;;100.70;27.15;;;;;;;0.62;100.00;97131.69;1026545;28;20353;-71
2023/01/04 00:11:43;;;;;;;113.68;29.40;;;;;;;0.70;100.00;97136.00;1023573;28;20019;-71
2023/01/04 00:12:13;;;;;;;105.78;29.05;;;;;;;0.66;100.00;97132.97;1022056;29;20297;-71
2023/01/04 00:12:44;;;;;;;126.30;29.98;;;;;;;0.68;100.00;97127.66;1026971;28;20027;-69
2023/01/04 00:13:14;;;;;;;108.13;30.77;;;;;;;0.69;100.00;97130.06;1025930;28;20026;-71
2023/01/04 00:13:46;;;;;;;126.15;30.33;;;;;;;0.75;100.00;97132.97;1023253;28;20027;-74
2023/01/04 00:14:17;;;;;;;130.32;31.36;;;;;;;0.79;100.00;97140.19;1025859;28;20076;-70
2023/01/04 00:14:49;;;;;;;97.10;27.63;;;;;;;0.83;100.00;97135.50;1022932;28;20062;-71
2023/01/04 00:15:19;;;;;;;128.00;31.28;;;;;;;0.81;100.00;97135.69;1026286;28;20277;-70
2023/01/04 00:15:50;;;;;;;107.00;27.48;;;;;;;0.80;100.00;97130.66;1023032;28;20536;-72
2023/01/04 00:16:22;;;;;;;91.78;29.77;;;;;;;0.72;100.00;97139.25;1030342;28;20528;-70
2023/01/04 00:16:52;;;;;;;121.07;29.58;;;;;;;0.77;100.00;97138.75;1032321;28;20034;-71
2023/01/04 00:17:23;;;;;;;83.50;29.27;;;;;;;0.80;100.00;97136.63;1034174;28;20269;-72
2023/01/04 00:17:53;;;;;;;114.38;29.73;;;;;;;0.83;100.00;97138.09;1030374;28;20041;-71
2023/01/04 00:18:24;;;;;;;95.07;27.98;;;;;;;0.81;100.00;97140.84;1026455;28;20098;-71
2023/01/04 00:18:55;;;;;;;121.22;30.63;;;;;;;0.81;100.00;97137.47;1030336;28;20030;-71
2023/01/04 00:19:26;;;;;;;117.90;30.92;;;;;;;0.81;100.00;97142.63;1022586;28;20074;-69
2023/01/04 00:19:56;;;;;;;121.88;30.55;;;;;;;0.82;100.00;97137.28;1017875;29;20036;-70
2023/01/04 00:20:27;;;;;;;116.38;31.58;;;;;;;0.86;100.00;97132.59;1020908;28;20031;-72
2023/01/04 00:21:08;;;;;;;137.75;33.78;;;;;;;0.83;100.00;97122.59;1022460;28;20522;-71
2023/01/04 00:21:39;;;;;;;99.72;30.28;;;;;;;0.91;100.00;97132.91;1026864;28;20776;-71
2023/01/04 00:22:10;;;;;;;124.07;32.33;;;;;;;0.94;100.00;97132.56;1029847;28;20054;-71
2023/01/04 00:22:40;;;;;;;91.32;27.85;;;;;;;0.94;100.00;97128.22;1031346;28;20125;-70
2023/01/04 00:23:10;;;;;;;125.18;31.48;;;;;;;1.02;100.00;97129.94;1022125;29;20798;-70
2023/01/04 00:23:42;;;;;;;139.77;31.58;;;;;;;1.07;100.00;97126.84;1020359;29;20031;-73
2023/01/04 00:24:14;;;;;;;158.35;34.40;;;;;;;1.03;100.00;97123.78;1022159;28;20099;-71
2023/01/04 00:24:44;;;;;;;117.72;29.64;;;;;;;1.06;100.00;97126.06;1022501;28;20283;-72
2023/01/04 00:25:15;;;;;;;154.07;32.63;;;;;;;1.06;100.00;97118.28;1021958;29;20031;-70
2023/01/04 00:25:45;;;;;;;121.78;31.75;;;;;;;1.11;100.00;97112.63;1017987;28;20032;-70
2023/01/04 00:26:32;;;;;;;102.40;29.52;;;;;;;1.15;100.00;97119.88;1026497;28;20023;-70
2023/01/04 00:27:02;;;;;;;128.00;29.86;;;;;;;1.11;100.00;97113.44;1028344;28;20746;-71
2023/01/04 00:27:33;;;;;;;120.80;31.25;;;;;;;1.11;100.00;97112.63;1028070;28;20114;-70
2023/01/04 00:28:03;;;;;;;143.02;33.25;;;;;;;1.18;100.00;97116.97;1026118;28;20146;-71
2023/01/04 00:28:34;;;;;;;125.18;31.63;;;;;;;1.18;100.00;97105.81;1028246;28;20061;-70
2023/01/04 00:29:05;;;;;;;109.35;30.35;;;;;;;1.21;100.00;97105.47;1022547;28;20031;-71
2023/01/04 00:29:36;;;;;;;133.20;30.83;;;;;;;1.24;100.00;97101.72;1022215;28;20065;-71
2023/01/04 00:30:07;;;;;;;125.38;29.52;;;;;;;1.26;100.00;97099.78;1021236;28;20309;-72
2023/01/04 00:30:37;;;;;;;82.10;25.88;;;;;;;1.28;100.00;97098.66;1018041;29;20062;-71
2023/01/04 00:31:10;;;;;;;86.55;25.70;;;;;;;1.36;100.00;97096.00;1017776;29;20035;-71
2023/01/04 00:31:43;;;;;;;141.93;33.33;;;;;;;1.45;100.00;97104.53;1020114;29;20023;-70
2023/01/04 00:32:13;;;;;;;109.28;30.45;;;;;;;1.46;100.00;97102.75;1025719;28;20815;-71
2023/01/04 00:32:44;;;;;;;149.80;32.15;;;;;;;1.39;100.00;97092.28;1024860;28;20266;-71
2023/01/04 00:33:14;;;;;;;104.20;26.20;;;;;;;1.49;100.00;97110.97;1020025;28;20422;-71
2023/01/04 00:33:45;;;;;;;109.22;26.65;;;;;;;1.45;100.00;97109.72;1026211;28;20031;-71
2023/01/04 00:34:16;;;;;;;115.30;28.10;;;;;;;1.40;100.00;97099.84;1025945;28;20038;-72
2023/01/04 00:34:46;;;;;;;119.15;29.50;;;;;;;1.43;100.00;97103.88;1017711;28;20133;-70
2023/01/04 00:35:17;;;;;;;114.97;28.98;;;;;;;1.46;100.00;97103.56;1024879;28;20365;-71
2023/01/04 00:35:47;;;;;;;106.97;28.77;;;;;;;1.53;100.00;97101.88;1030087;28;20070;-74
2023/01/04 00:36:18;;;;;;;101.25;28.15;;;;;;;1.54;100.00;97097.50;1026069;28;20030;-70
2023/01/04 00:36:48;;;;;;;135.35;28.30;;;;;;;1.56;100.00;97103.34;1023882;28;20543;-74
2023/01/04 00:37:18;;;;;;;112.55;25.35;;;;;;;1.58;100.00;97104.78;1018527;29;20032;-71
2023/01/04 00:37:49;;;;;;;133.95;28.40;;;;;;;1.62;100.00;97115.59;1022122;28;20035;-71
2023/01/04 00:38:19;;;;;;;160.73;29.05;;;;;;;1.63;100.00;97112.81;1021937;28;20030;-72
2023/01/04 00:39:09;;;;;;;145.65;27.13;;;;;;;1.65;100.00;97107.47;1026489;28;20860;-70
2023/01/04 00:39:39;;;;;;;128.85;27.30;;;;;;;1.65;100.00;97110.88;1037594;28;20676;-73
2023/01/04 00:40:10;;;;;;;132.00;28.10;;;;;;;1.65;100.00;97095.34;1033530;28;20308;-73
2023/01/04 00:40:40;;;;;;;140.52;29.90;;;;;;;1.69;100.00;97097.59;1025926;28;20560;-71
2023/01/04 00:41:11;;;;;;;141.90;28.92;;;;;;;1.66;100.00;97106.50;1031760;28;20277;-70
2023/01/04 00:41:46;;;;;;;146.30;29.00;;;;;;;1.69;100.00;97100.19;1029807;28;20029;-73
2023/01/04 00:42:16;;;;;;;114.13;26.80;;;;;;;1.69;100.00;97095.81;1029839;28;20503;-70
2023/01/04 00:42:47;;;;;;;154.40;28.88;;;;;;;1.70;100.00;97100.00;1034803;28;20276;-70
2023/01/04 00:43:18;;;;;;;104.88;24.65;;;;;;;1.74;100.00;97100.44;1037882;28;20036;-73
2023/01/04 00:43:48;;;;;;;99.20;24.40;;;;;;;1.75;100.00;97097.72;1031375;28;20813;-73
2023/01/04 00:44:22;;;;;;;140.05;27.05;;;;;;;1.79;100.00;97100.75;1030051;28;20022;-70
2023/01/04 00:44:52;;;;;;;102.45;24.88;;;;;;;1.82;100.00;97096.03;1026645;28;20034;-71
2023/01/04 00:45:23;;;;;;;130.35;26.52;;;;;;;1.84;100.00;97094.06;1026506;28;20777;-70
2023/01/04 00:45:53;;;;;;;101.03;25.70;;;;;;;1.85;100.00;97089.72;1025991;28;20038;-71
2023/01/04 00:46:24;;;;;;;111.22;24.95;;;;;;;1.86;100.00;97094.69;1022041;29;20043;-72
2023/01/04 00:46:54;;;;;;;109.85;25.67;;;;;;;1.89;100.00;97091.78;1019557;28;20488;-71
2023/01/04 00:47:24;;;;;;;105.88;25.02;;;;;;;1.90;100.00;97092.56;1022192;28;20042;-71
2023/01/04 00:47:55;;;;;;;124.78;24.63;;;;;;;1.93;100.00;97092.22;1026369;28;20030;-70
2023/01/04 00:48:26;;;;;;;146.63;26.45;;;;;;;1.94;100.00;97096.41;1030129;28;20488;-71
2023/01/04 00:48:56;;;;;;;102.25;25.20;;;;;;;1.98;100.00;97084.75;1022040;28;20328;-70
2023/01/04 00:49:27;;;;;;;115.95;24.42;;;;;;;2.01;100.00;97089.59;1018482;29;20803;-71
2023/01/04 00:49:58;;;;;;;141.13;24.90;;;;;;;2.01;100.00;97083.56;1022030;29;20034;-73
2023/01/04 00:50:28;;;;;;;102.80;22.50;;;;;;;2.03;100.00;97086.81;1024127;28;20309;-70
2023/01/04 00:50:59;;;;;;;170.07;26.92;;;;;;;2.00;100.00;97081.97;1026393;28;20505;-71
2023/01/04 00:51:29;;;;;;;164.57;25.23;;;;;;;1.96;100.00;97081.53;1026200;28;20117;-72
2023/01/04 00:52:00;;;;;;;119.40;23.77;;;;;;;2.05;100.00;97093.44;1026344;28;20027;-72
2023/01/04 00:52:30;;;;;;;116.70;23.88;;;;;;;2.09;100.00;97091.28;1026002;28;20022;-71
2023/01/04 00:53:01;;;;;;;141.52;25.15;;;;;;;2.05;100.00;97077.91;1026032;28;20035;-71
2023/01/04 00:53:31;;;;;;;135.35;25.08;;;;;;;2.11;100.00;97089.31;1026289;28;20030;-71
2023/01/04 00:54:02;;;;;;;113.03;24.20;;;;;;;2.15;100.00;97080.25;1026094;28;20069;-70
2023/01/04 00:54:36;;;;;;;126.32;23.35;;;;;;;2.15;100.00;97085.41;1030118;28;20093;-74
2023/01/04 00:55:07;;;;;;;125.90;23.25;;;;;;;2.16;100.00;97086.22;1026910;28;20747;-70
2023/01/04 00:55:37;;;;;;;140.98;25.45;;;;;;;2.19;100.00;97088.44;1029193;28;20030;-72
2023/01/04 00:56:08;;;;;;;125.10;23.77;;;;;;;2.16;100.00;97076.66;1030591;28;20022;-71
2023/01/04 00:56:38;;;;;;;119.95;23.00;;;;;;;2.21;100.00;97084.69;1022507;28;20414;-72
2023/01/04 00:57:08;;;;;;;121.10;23.73;;;;;;;2.19;100.00;97083.28;1030108;28;20034;-69
2023/01/04 00:57:39;;;;;;;116.28;23.10;;;;;;;2.22;100.00;97082.94;1034585;28;20018;-72
2023/01/04 00:58:09;;;;;;;135.43;25.02;;;;;;;2.21;100.00;97078.72;1030216;28;20019;-71
2023/01/04 00:58:40;;;;;;;124.15;23.92;;;;;;;2.20;100.00;97083.09;1026117;28;20023;-70
2023/01/04 00:59:14;;;;;;;117.25;23.55;;;;;;;2.20;100.00;97082.28;1030212;28;20022;-71
2023/01/04 00:59:44;;;;;;;129.50;23.05;;;;;;;2.22;100.00;97077.75;1034255;28;20014;-70
2023/01/04 01:00:15;;;;;;;107.78;21.60;;;;;;;2.24;100.00;97078.34;1035634;28;20253;-71
2023/01/04 01:00:45;;;;;;;123.95;24.13;;;;;;;2.22;100.00;97077.75;1038657;28;20030;-71
2023/01/04 01:01:16;;;;;;;82.57;21.95;;;;;;;2.32;100.00;97080.88;1034008;28;20025;-70
2023/01/04 01:01:47;;;;;;;108.75;22.85;;;;;;;2.35;100.00;97085.72;1034549;28;20026;-71
2023/01/04 01:02:17;;;;;;;125.15;23.55;;;;;;;2.33;100.00;97079.91;1026094;28;20019;-70
2023/01/04 01:02:47;;;;;;;113.53;22.17;;;;;;;2.38;100.00;97090.50;1026466;28;20023;-71
2023/01/04 01:03:18;;;;;;;118.57;23.48;;;;;;;2.39;100.00;97099.13;1034278;28;20464;-71
2023/01/04 01:03:52;;;;;;;145.73;25.20;;;;;;;2.39;100.00;97097.31;1029921;28;20025;-71
2023/01/04 01:04:23;;;;;;;142.10;24.02;;;;;;;2.38;100.00;97095.69;1026335;28;20118;-71
2023/01/04 01:04:53;;;;;;;114.68;22.48;;;;;;;2.42;100.00;97096.16;1026775;28;20274;-71
2023/01/04 01:05:24;;;;;;;136.73;25.27;;;;;;;2.34;100.00;97081.50;1030490;28;20594;-71
2023/01/04 01:05:54;;;;;;;138.85;25.15;;;;;;;2.29;100.00;97076.06;1029255;28;20042;-72
2023/01/04 01:06:25;;;;;;;123.22;23.67;;;;;;;2.38;100.00;97084.53;1026063;28;20027;-70
2023/01/04 01:06:56;;;;;;;155.98;24.63;;;;;;;2.40;100.00;97093.75;1026115;28;20023;-70
2023/01/04 01:07:26;;;;;;;122.75;23.38;;;;;;;2.39;100.00;97091.34;1021254;28;20282;-71
2023/01/04 01:07:57;;;;;;;160.73;27.42;;;;;;;2.38;100.00;97100.88;1021776;28;20683;-71
2023/01/04 01:08:27;;;;;;;169.90;26.08;;;;;;;2.36;100.00;97097.69;1030531;28;20066;-71
2023/01/04 01:08:58;;;;;;;196.77;27.67;;;;;;;2.34;100.00;97094.44;1029999;28;20018;-71
2023/01/04 01:09:28;;;;;;;205.68;29.40;;;;;;;2.36;100.00;97095.09;1033903;28;20069;-72
2023/01/04 01:09:59;;;;;;;170.38;25.40;;;;;;;2.35;100.00;97096.88;1034567;28;20113;-70
2023/01/04 01:10:29;;;;;;;148.93;25.45;;;;;;;2.30;100.00;97088.00;1030011;28;20479;-70
2023/01/04 01:11:04;;;;;;;128.73;26.90;;;;;;;2.38;100.00;97100.06;1025967;28;20520;-71
2023/01/04 01:11:36;;;;;;;116.22;23.88;;;;;;;2.41;100.00;97095.34;1030445;28;20023;-72
2023/01/04 01:12:07;;;;;;;109.78;24.80;;;;;;;2.41;100.00;97090.16;1030187;28;20276;-72
2023/01/04 01:12:37;;;;;;;186.57;27.98;;;;;;;2.34;100.00;97084.88;1029992;28;20332;-71
2023/01/04 01:13:08;;;;;;;125.53;23.27;;;;;;;2.42;100.00;97103.94;1022434;28;20019;-71
2023/01/04 01:13:38;;;;;;;122.47;24.23;;;;;;;2.41;100.00;97097.94;1026584;28;20023;-69
2023/01/04 01:14:14;;;;;;;123.13;24.08;;;;;;;2.39;100.00;97089.56;1030340;28;20476;-71
2023/01/04 01:14:45;;;;;;;141.88;24.50;;;;;;;2.38;100.00;97095.69;1023767;28;20015;-71
2023/01/04 01:15:15;;;;;;;157.93;26.85;;;;;;;2.44;100.00;97097.59;1026375;28;20270;-72
2023/01/04 01:15:46;;;;;;;93.70;21.88;;;;;;;2.45;100.00;97101.81;1021896;28;20034;-71
2023/01/04 01:16:18;;;;;;;106.70;21.70;;;;;;;2.49;100.00;97097.88;1030088;28;20034;-71
2023/01/04 01:16:49;;;;;;;109.50;23.73;;;;;;;2.50;100.00;97101.25;1030219;28;20027;-70
2023/01/04 01:17:19;;;;;;;102.05;24.05;;;;;;;2.44;100.00;97097.59;1022177;29;20366;-71
2023/01/04 01:17:50;;;;;;;111.38;22.98;;;;;;;2.48;100.00;97096.28;1025921;28;20090;-71
2023/01/04 01:18:20;;;;;;;108.53;23.83;;;;;;;2.52;100.00;97110.47;1022448;29;20504;-70
2023/01/04 01:18:51;;;;;;;104.47;23.15;;;;;;;2.53;100.00;97109.47;1026044;28;20027;-72
2023/01/04 01:19:21;;;;;;;99.90;22.42;;;;;;;2.56;100.00;97106.53;1026041;28;20022;-71
2023/01/04 01:19:52;;;;;;;110.68;22.20;;;;;;;2.58;100.00;97104.59;1020556;28;20138;-70
2023/01/04 01:20:22;;;;;;;104.75;24.30;;;;;;;2.63;100.00;97103.25;1026264;28;20015;-72
2023/01/04 01:20:53;;;;;;;100.10;21.42;;;;;;;2.63;100.00;97104.03;1027625;28;20023;-71
2023/01/04 01:21:25;;;;;;;99.03;22.42;;;;;;;2.62;100.00;97101.63;1038263;28;20391;-70
2023/01/04 01:21:56;;;;;;;102.70;23.42;;;;;;;2.57;100.00;97090.00;1042589;28;20032;-72
2023/01/04 01:22:26;;;;;;;106.43;23.10;;;;;;;2.64;100.00;97100.44;1038560;28;20283;-70
2023/01/04 01:22:57;;;;;;;97.32;23.02;;;;;;;2.64;100.00;97094.47;1034116;28;20080;-73
2023/01/04 01:23:27;;;;;;;92.82;23.05;;;;;;;2.64;100.00;97099.66;1030347;28;20539;-72
2023/01/04 01:23:58;;;;;;;106.95;23.92;;;;;;;2.60;100.00;97092.25;1025999;28;20066;-71
2023/01/04 01:24:28;;;;;;;84.47;21.42;;;;;;;2.68;100.00;97096.53;1030098;28;20544;-71
2023/01/04 01:24:59;;;;;;;81.57;20.48;;;;;;;2.72;100.00;97097.00;1034454;28;20029;-70
2023/01/04 01:25:32;;;;;;;93.32;22.15;;;;;;;2.71;100.00;97095.34;1029718;28;20022;-71
2023/01/04 01:26:04;;;;;;;91.63;21.83;;;;;;;2.71;100.00;97101.34;1030227;28;20492;-73
2023/01/04 01:26:34;;;;;;;109.18;22.20;;;;;;;2.70;100.00;97091.16;1030731;28;20269;-71
2023/01/04 01:27:05;;;;;;;75.32;20.52;;;;;;;2.74;100.00;97095.00;1030862;28;20269;-70
2023/01/04 01:27:35;;;;;;;79.95;20.10;;;;;;;2.78;100.00;97088.47;1030193;28;20030;-73
2023/01/04 01:28:06;;;;;;;76.43;19.63;;;;;;;2.80;100.00;97097.69;1022409;28;20019;-70
2023/01/04 01:28:36;;;;;;;82.72;20.60;;;;;;;2.74;100.00;97082.84;1030197;28;20129;-71
2023/01/04 01:29:07;;;;;;;88.03;20.33;;;;;;;2.83;100.00;97088.75;1026411;28;20029;-70
2023/01/04 01:29:37;;;;;;;78.45;20.13;;;;;;;2.84;100.00;97085.97;1027838;28;20123;-72
2023/01/04 01:30:08;;;;;;;76.95;19.88;;;;;;;2.90;100.00;97088.84;1030954;28;20030;-70
2023/01/04 01:30:42;;;;;;;77.95;20.63;;;;;;;2.91;100.00;97083.47;1030904;28;20057;-71
2023/01/04 01:31:16;;;;;;;78.00;19.38;;;;;;;2.88;100.00;97076.03;1022177;28;20028;-71
2023/01/04 01:31:47;;;;;;;70.95;18.98;;;;;;;2.97;100.00;97084.53;1034257;28;20360;-71
2023/01/04 01:32:17;;;;;;;66.25;19.25;;;;;;;2.98;100.00;97079.16;1026978;28;20751;-71
2023/01/04 01:32:48;;;;;;;73.57;18.95;;;;;;;2.97;100.00;97077.56;1026695;28;20078;-72
2023/01/04 01:33:18;;;;;;;77.75;20.08;;;;;;;2.98;100.00;97073.97;1027143;28;20030;-71
2023/01/04 01:33:50;;;;;;;67.28;20.08;;;;;;;3.02;100.00;97072.66;1026862;28;20031;-72
2023/01/04 01:34:20;;;;;;;71.68;19.13;;;;;;;3.04;100.00;97075.03;1031259;28;20022;-71
2023/01/04 01:34:51;;;;;;;65.95;20.00;;;;;;;3.06;100.00;97073.88;1031033;28;20782;-71
2023/01/04 01:35:21;;;;;;;63.75;19.20;;;;;;;3.10;100.00;97073.53;1031063;28;20026;-71
2023/01/04 01:35:51;;;;;;;64.20;17.73;;;;;;;3.11;100.00;97075.13;1026503;28;20607;-72
2023/01/04 01:36:23;;;;;;;70.55;19.30;;;;;;;3.06;100.00;97060.91;1018868;28;20055;-71
2023/01/04 01:36:54;;;;;;;66.40;18.95;;;;;;;3.14;100.00;97079.94;1023174;29;20035;-71
2023/01/04 01:37:24;;;;;;;63.88;18.98;;;;;;;3.15;100.00;97079.75;1023488;29;20275;-70
2023/01/04 01:37:55;;;;;;;66.82;18.30;;;;;;;3.15;100.00;97076.34;1027560;28;20042;-71
2023/01/04 01:38:25;;;;;;;68.40;18.83;;;;;;;3.17;100.00;97079.59;1019062;29;20058;-71
2023/01/04 01:38:55;;;;;;;64.55;17.70;;;;;;;3.22;100.00;97080.66;1023037;28;20034;-72
2023/01/04 01:39:26;;;;;;;62.30;18.48;;;;;;;3.22;100.00;97079.81;1023084;28;20035;-71
2023/01/04 01:39:57;;;;;;;69.82;17.83;;;;;;;3.26;100.00;97081.09;1023440;28;20050;-72
2023/01/04 01:40:27;;;;;;;61.28;18.20;;;;;;;3.27;100.00;97082.69;1029258;28;20766;-72
2023/01/04 01:40:58;;;;;;;72.28;19.65;;;;;;;3.21;100.00;97071.25;1035044;28;20030;-73
2023/01/04 01:41:30;;;;;;;64.32;18.23;;;;;;;3.27;100.00;97087.88;1031197;28;20745;-71
2023/01/04 01:42:01;;;;;;;57.85;17.17;;;;;;;3.27;100.00;97082.69;1022919;28;20066;-70
2023/01/04 01:42:31;;;;;;;71.30;19.67;;;;;;;3.30;100.00;97090.13;1023195;29;20270;-72
2023/01/04 01:43:02;;;;;;;76.85;19.77;;;;;;;3.32;100.00;97085.56;1023725;28;20027;-72
2023/01/04 01:43:50;;;;;;;80.45;19.95;;;;;;;3.31;100.00;97086.53;1031083;28;20456;-70
2023/01/04 01:44:45;;;;;;;61.17;18.40;;;;;;;3.33;100.00;97089.75;1039395;28;20025;-72
2023/01/04 01:45:25;;;;;;;67.63;18.95;;;;;;;3.34;100.00;97088.75;1039268;28;20248;-71
2023/01/04 01:45:56;;;;;;;67.10;19.25;;;;;;;3.30;100.00;97085.72;1038246;28;20276;-70
2023/01/04 01:46:45;;;;;;;65.60;18.25;;;;;;;3.34;100.00;97080.16;1034958;28;20273;-71
2023/01/04 01:47:21;;;;;;;65.88;17.65;;;;;;;3.29;100.00;97073.75;1026435;28;20027;-71
2023/01/04 01:47:52;;;;;;;60.08;18.58;;;;;;;3.28;100.00;97069.53;1022770;29;20031;-72
2023/01/04 01:48:25;;;;;;;60.63;17.75;;;;;;;3.31;100.00;97083.94;1022929;29;20952;-71
2023/01/04 01:48:59;;;;;;;62.08;18.05;;;;;;;3.30;100.00;97075.34;1022467;29;20034;-72
2023/01/04 01:49:32;;;;;;;61.45;18.42;;;;;;;3.26;100.00;97078.50;1022865;29;20275;-72
2023/01/04 01:50:03;;;;;;;60.47;17.88;;;;;;;3.26;100.00;97078.50;1022909;29;20963;-70
2023/01/04 01:50:45;;;;;;;56.55;17.90;;;;;;;3.25;100.00;97076.88;1026481;28;20321;-71
2023/01/04 01:51:16;;;;;;;57.40;18.02;;;;;;;3.32;100.00;97080.38;1026506;28;20027;-71
2023/01/04 01:51:46;;;;;;;60.63;17.38;;;;;;;3.30;100.00;97087.50;1026688;28;20286;-70
2023/01/04 01:52:20;;;;;;;57.25;17.40;;;;;;;3.24;100.00;97075.28;1026725;28;20268;-72
2023/01/04 01:52:50;;;;;;;70.05;19.55;;;;;;;3.29;100.00;97084.13;1022787;29;20473;-71
2023/01/04 01:53:21;;;;;;;68.28;18.70;;;;;;;3.27;100.00;97087.88;1019375;29;20271;-71
2023/01/04 01:53:55;;;;;;;85.03;19.73;;;;;;;3.23;100.00;97082.25;1019855;28;20545;-72
2023/01/04 01:54:31;;;;;;;63.03;17.67;;;;;;;3.16;100.00;97070.22;1021048;28;20070;-70
2023/01/04 01:55:03;;;;;;;60.90;18.17;;;;;;;3.13;100.00;97065.38;1026910;28;20313;-70
2023/01/04 01:55:34;;;;;;;56.45;16.92;;;;;;;3.14;100.00;97075.56;1022300;28;20283;-71
2023/01/04 01:56:05;;;;;;;55.25;16.92;;;;;;;3.13;100.00;97075.75;1022572;29;20633;-72
2023/01/04 01:56:36;;;;;;;56.13;17.48;;;;;;;3.10;100.00;97071.72;1024849;28;20038;-72
2023/01/04 01:57:07;;;;;;;53.22;16.52;;;;;;;3.07;100.00;97065.13;1026435;28;20830;-71
2023/01/04 01:57:38;;;;;;;60.22;17.40;;;;;;;3.02;100.00;97062.28;1025483;28;20267;-70
2023/01/04 01:58:08;;;;;;;64.57;17.77;;;;;;;3.04;100.00;97068.06;1026602;28;20628;-72
2023/01/04 01:58:42;;;;;;;63.80;17.80;;;;;;;3.00;100.00;97061.66;1022953;28;20023;-71
2023/01/04 01:59:12;;;;;;;60.67;17.38;;;;;;;2.97;100.00;97058.63;1018661;29;20947;-73
2023/01/04 01:59:43;;;;;;;47.10;17.70;;;;;;;2.90;100.00;97048.16;1029578;28;20258;-70
2023/01/04 02:00:14;;;;;;;57.30;15.68;;;;;;;2.95;100.00;97065.75;1030883;28;20491;-70
2023/01/04 02:00:44;;;;;;;55.80;16.00;;;;;;;2.92;100.00;97059.16;1027744;28;20023;-73
2023/01/04 02:01:15;;;;;;;49.17;15.70;;;;;;;2.91;100.00;97059.34;1018718;29;20028;-70
2023/01/04 02:01:45;;;;;;;51.88;16.70;;;;;;;2.83;100.00;97055.06;1026252;28;20022;-70
2023/01/04 02:02:16;;;;;;;56.55;16.42;;;;;;;2.92;100.00;97066.94;1026590;28;20082;-70
2023/01/04 02:02:57;;;;;;;49.92;15.80;;;;;;;2.89;100.00;97062.13;1026771;28;20082;-70
2023/01/04 02:03:35;;;;;;;48.15;16.98;;;;;;;2.84;100.00;97059.25;1026701;28;20038;-70
2023/01/04 02:04:05;;;;;;;52.95;16.67;;;;;;;2.82;100.00;97053.47;1026575;28;20886;-71
2023/01/04 02:04:37;;;;;;;54.35;16.73;;;;;;;2.80;100.00;97052.81;1026867;28;20274;-70
2023/01/04 02:05:08;;;;;;;48.05;16.45;;;;;;;2.78;100.00;97060.78;1026849;28;20022;-72
2023/01/04 02:05:38;;;;;;;55.53;16.98;;;;;;;2.80;100.00;97061.41;1026010;28;20270;-71
2023/01/04 02:06:13;;;;;;;48.47;16.08;;;;;;;2.79;100.00;97046.84;1026970;28;20031;-70
2023/01/04 02:06:48;;;;;;;56.58;16.27;;;;;;;2.80;100.00;97053.63;1019469;29;20110;-71
2023/01/04 02:07:20;;;;;;;51.88;16.35;;;;;;;2.77;100.00;97056.56;1024862;28;20721;-70
2023/01/04 02:07:51;;;;;;;49.75;17.20;;;;;;;2.72;100.00;97055.53;1021614;29;20281;-71
2023/01/04 02:08:22;;;;;;;52.22;16.77;;;;;;;2.75;100.00;97052.56;1026841;28;20254;-72
2023/01/04 02:08:52;;;;;;;48.20;16.08;;;;;;;2.76;100.00;97056.78;1034724;28;20030;-70
2023/01/04 02:09:23;;;;;;;48.90;15.98;;;;;;;2.76;100.00;97064.53;1026647;28;20082;-72
2023/01/04 02:09:54;;;;;;;52.38;16.77;;;;;;;2.76;100.00;97056.78;1026509;28;20027;-71
2023/01/04 02:10:24;;;;;;;55.80;16.58;;;;;;;2.70;100.00;97053.09;1026735;28;20428;-70
2023/01/04 02:10:55;;;;;;;45.75;16.10;;;;;;;2.74;100.00;97056.13;1022449;28;20289;-72
2023/01/04 02:11:25;;;;;;;49.85;17.38;;;;;;;2.67;100.00;97044.88;1027054;28;20027;-70
2023/01/04 02:11:56;;;;;;;56.28;16.48;;;;;;;2.69;100.00;97050.69;1030743;28;20089;-71
2023/01/04 02:12:26;;;;;;;52.25;16.83;;;;;;;2.69;100.00;97061.06;1026395;28;20027;-69
2023/01/04 02:12:57;;;;;;;49.85;17.02;;;;;;;2.69;100.00;97055.88;1022829;28;20027;-73
2023/01/04 02:14:25;;;;;;;46.90;15.80;;;;;;;2.62;100.00;97044.63;1023009;28;20090;-71
2023/01/04 02:14:28;;;;;;;56.22;17.10;;;;;;;2.64;100.00;97047.84;1026680;28;20034;-71
2023/01/04 02:14:59;;;;;;;61.10;16.85;;;;;;;2.60;100.00;97050.78;1026937;28;20276;-72
2023/01/04 02:15:32;;;;;;;55.10;17.42;;;;;;;2.58;100.00;97049.34;1023692;28;20048;-69
2023/01/04 02:16:10;;;;;;;58.25;17.25;;;;;;;2.53;100.00;97043.91;1028084;28;20023;-73
2023/01/04 02:16:45;;;;;;;58.45;17.25;;;;;;;2.58;100.00;97045.00;1026961;28;20273;-72
2023/01/04 02:17:34;;;;;;;52.38;16.70;;;;;;;2.57;100.00;97047.75;1026710;28;20328;-71
2023/01/04 02:18:10;;;;;;;55.40;17.17;;;;;;;2.49;100.00;97035.69;1030976;28;20265;-70
2023/01/04 02:18:52;;;;;;;56.05;17.75;;;;;;;2.51;100.00;97036.31;1026800;28;20320;-71
2023/01/04 02:19:40;;;;;;;55.22;17.02;;;;;;;2.56;100.00;97046.94;1022976;28;20265;-72
2023/01/04 02:20:28;;;;;;;52.08;16.35;;;;;;;2.57;100.00;97047.75;1026614;28;20262;-71
2023/01/04 02:21:08;;;;;;;54.03;15.15;;;;;;;2.55;100.00;97045.34;1023638;28;20321;-69
2023/01/04 02:21:57;;;;;;;49.03;15.68;;;;;;;2.54;100.00;97046.31;1021494;28;20345;-70
2023/01/04 02:22:52;;;;;;;64.40;17.05;;;;;;;2.50;100.00;97052.03;1017004;29;20039;-71
2023/01/04 02:23:53;;;;;;;51.03;15.18;;;;;;;2.44;100.00;97038.00;1025583;28;21385;-71
2023/01/04 02:24:31;;;;;;;48.58;16.02;;;;;;;2.39;100.00;97040.34;1035625;28;21143;-70
2023/01/04 02:25:16;;;;;;;46.50;15.57;;;;;;;2.44;100.00;97032.81;1028469;28;20022;-71
2023/01/04 02:26:05;;;;;;;53.20;16.30;;;;;;;2.43;100.00;97035.59;1022378;28;20803;-72
2023/01/04 02:26:44;;;;;;;52.28;16.25;;;;;;;2.41;100.00;97033.19;1022713;28;20248;-71
2023/01/04 02:27:26;;;;;;;50.92;16.20;;;;;;;2.38;100.00;97033.53;1027057;28;20773;-71
2023/01/04 02:28:29;;;;;;;53.25;16.77;;;;;;;2.36;100.00;97031.13;1030616;28;20281;-71
2023/01/04 02:29:14;;;;;;;51.60;15.73;;;;;;;2.35;100.00;97039.09;1028737;28;20711;-72